Time;durP1;ratioP1;P1;durP2;ratioP2;P2;SDS_P1;SDS_P2;PMS_P1;PMS_P2;Temp;Humidity;BMP_temperature;BMP_pressure;BME280_temperature;BME280_humidity;BME280_pressure;Samples;Min_cycle;Max_cycle;Signal;HPM_P1;HPM_P2
2022/01/23 00:00:17;;;;;;;15.77;10.07;;;;;;;7.77;74.86;102387.16;5132627;27;20645;-64
2022/01/23 00:02:45;;;;;;;20.17;11.03;;;;;;;7.87;74.23;102380.44;5132092;27;20228;-64
2022/01/23 00:05:14;;;;;;;20.07;12.03;;;;;;;7.81;74.78;102383.41;5128097;27;20213;-64
2022/01/23 00:07:43;;;;;;;20.20;10.90;;;;;;;7.54;75.56;102383.13;5123364;27;20217;-63
2022/01/23 00:10:13;;;;;;;22.17;10.93;;;;;;;7.66;75.46;102381.59;5124710;27;20216;-64
2022/01/23 00:12:46;;;;;;;17.70;11.07;;;;;;;7.79;74.59;102365.94;5129026;27;20245;-62
2022/01/23 00:18:00;;;;;;;21.07;11.23;;;;;;;7.74;74.83;102368.81;5130590;27;20232;-62
2022/01/23 00:20:28;;;;;;;18.73;10.97;;;;;;;7.67;74.99;102371.88;5123329;27;20281;-63
2022/01/23 00:22:59;;;;;;;17.83;10.87;;;;;;;7.72;75.24;102386.56;5130088;27;20637;-63
2022/01/23 00:31:00;;;;;;;15.80;9.27;;;;;;;7.99;73.78;102378.91;5124073;27;20213;-63
2022/01/23 00:33:28;;;;;;;17.47;10.33;;;;;;;7.90;73.86;102382.06;5130314;27;20280;-62
2022/01/23 00:35:56;;;;;;;17.87;10.30;;;;;;;7.92;73.89;102381.00;5131730;27;20292;-64
2022/01/23 00:38:24;;;;;;;17.60;10.60;;;;;;;8.04;73.39;102376.00;5130855;27;20273;-62
2022/01/23 00:40:54;;;;;;;24.87;11.93;;;;;;;7.95;73.67;102372.06;5128247;27;20255;-63
2022/01/23 00:43:29;;;;;;;18.67;11.30;;;;;;;8.04;73.36;102371.56;5119298;27;20669;-63
2022/01/23 00:46:09;;;;;;;19.63;11.03;;;;;;;8.16;72.99;102380.59;5132100;27;20203;-63
2022/01/23 00:48:49;;;;;;;21.57;10.87;;;;;;;8.08;72.97;102369.63;5132392;27;20205;-63
2022/01/23 00:51:18;;;;;;;19.93;10.97;;;;;;;8.03;73.36;102371.66;5128839;27;20208;-63
2022/01/23 00:53:45;;;;;;;20.13;11.10;;;;;;;7.94;73.22;102371.22;5131389;27;20233;-62
2022/01/23 00:56:15;;;;;;;21.30;10.90;;;;;;;8.03;73.34;102369.00;5130121;27;20235;-63
2022/01/23 00:58:44;;;;;;;17.97;10.87;;;;;;;7.95;73.19;102372.06;5131454;27;20235;-63
2022/01/23 01:01:12;;;;;;;18.73;10.07;;;;;;;7.82;73.77;102376.34;5126159;27;20216;-63
2022/01/23 01:03:42;;;;;;;20.10;9.90;;;;;;;7.92;73.68;102373.09;5128703;27;20213;-63
2022/01/23 01:06:10;;;;;;;17.17;9.73;;;;;;;7.72;73.98;102381.28;5129407;27;20233;-63
2022/01/23 01:08:38;;;;;;;17.73;10.27;;;;;;;7.71;74.30;102378.72;5130005;27;20209;-62
2022/01/23 01:11:23;;;;;;;14.93;9.00;;;;;;;7.96;73.57;102378.22;5132022;27;20201;-63
2022/01/23 01:14:08;;;;;;;15.47;9.90;;;;;;;8.10;72.72;102383.56;5130516;27;20299;-62
2022/01/23 01:16:55;;;;;;;19.80;10.17;;;;;;;8.08;72.62;102378.41;5128682;27;20205;-63
2022/01/23 01:30:55;;;;;;;18.17;10.50;;;;;;;8.12;72.56;102374.63;5122760;27;20221;-62
2022/01/23 01:33:34;;;;;;;16.43;10.53;;;;;;;8.13;72.27;102376.34;5130364;27;20217;-63
2022/01/23 01:36:15;;;;;;;18.23;11.17;;;;;;;8.21;72.18;102367.97;5131716;27;20856;-61
2022/01/23 01:38:43;;;;;;;18.93;10.30;;;;;;;8.11;72.42;102369.41;5128606;27;20603;-62
2022/01/23 01:41:13;;;;;;;19.47;10.90;;;;;;;8.06;72.43;102367.06;5130806;27;20220;-63
2022/01/23 01:43:41;;;;;;;19.10;10.13;;;;;;;8.13;72.53;102373.69;5121304;27;20262;-62
2022/01/23 01:46:11;;;;;;;17.37;11.03;;;;;;;8.18;72.13;102373.44;5127951;27;20249;-62
2022/01/23 01:48:39;;;;;;;17.97;10.53;;;;;;;8.25;72.00;102362.44;5128327;27;20218;-62
2022/01/23 01:51:13;;;;;;;21.83;10.30;;;;;;;8.20;71.89;102363.63;5124275;27;20236;-62
2022/01/23 01:53:46;;;;;;;20.77;10.33;;;;;;;8.12;71.91;102363.19;5127771;27;20519;-62
2022/01/23 01:56:14;;;;;;;19.43;10.73;;;;;;;8.11;72.34;102357.06;5129464;27;20220;-62
2022/01/23 01:59:11;;;;;;;18.57;10.00;;;;;;;8.14;72.11;102361.34;5125591;27;20218;-62
2022/01/23 02:09:57;;;;;;;18.20;11.03;;;;;;;7.78;73.68;102343.09;5128862;27;20578;-61
2022/01/23 02:12:58;;;;;;;19.27;10.73;;;;;;;7.95;73.19;102340.38;5119893;27;20240;-62
2022/01/23 02:18:27;;;;;;;20.37;11.80;;;;;;;7.98;72.74;102339.34;5124879;27;20717;-62
2022/01/23 02:51:47;;;;;;;24.47;14.33;;;;;;;7.77;74.09;102366.00;5108405;28;20221;-61
2022/01/23 02:54:39;;;;;;;24.83;14.17;;;;;;;7.88;73.32;102371.56;5106487;28;20212;-62
2022/01/23 02:57:09;;;;;;;22.67;13.10;;;;;;;7.80;73.46;102373.78;5101825;28;20226;-61
2022/01/23 02:59:38;;;;;;;23.00;13.23;;;;;;;7.74;74.00;102379.38;5104173;28;20224;-61
2022/01/23 03:02:14;;;;;;;25.17;14.43;;;;;;;7.97;73.08;102379.91;5103301;28;20215;-62
2022/01/23 03:04:50;;;;;;;21.67;13.00;;;;;;;7.79;73.53;102390.56;5102734;28;20217;-62
2022/01/23 03:07:36;;;;;;;24.13;13.37;;;;;;;8.03;72.85;102382.22;5104010;28;20213;-62
2022/01/23 03:10:17;;;;;;;24.77;13.17;;;;;;;8.01;73.08;102376.16;5105284;27;20212;-63
2022/01/23 03:16:10;;;;;;;23.33;13.20;;;;;;;8.15;72.43;102374.47;5106081;28;20241;-62
2022/01/23 03:24:22;;;;;;;19.93;12.23;;;;;;;8.00;72.57;102375.34;5113338;28;20197;-62
2022/01/23 03:27:15;;;;;;;23.90;13.03;;;;;;;7.89;73.20;102381.22;5132396;27;20245;-62
2022/01/23 03:29:54;;;;;;;23.97;13.00;;;;;;;7.80;73.52;102386.13;5124822;27;20215;-62
2022/01/23 03:32:27;;;;;;;23.67;13.53;;;;;;;7.64;74.22;102374.72;5125541;27;20228;-61
2022/01/23 03:34:56;;;;;;;24.90;13.87;;;;;;;7.63;74.01;102376.50;5128743;27;20218;-60
2022/01/23 03:37:24;;;;;;;22.83;13.93;;;;;;;7.89;73.41;102368.00;5129342;27;20209;-62
2022/01/23 03:39:52;;;;;;;23.67;13.97;;;;;;;7.93;72.90;102363.38;5132761;27;20352;-61
2022/01/23 03:42:20;;;;;;;26.90;13.53;;;;;;;8.03;72.63;102361.06;5133050;27;20296;-62
2022/01/23 03:45:05;;;;;;;26.20;14.33;;;;;;;8.16;71.99;102364.75;5129977;27;20216;-62
2022/01/23 03:47:37;;;;;;;27.77;15.20;;;;;;;7.81;72.67;102361.44;5121362;27;20343;-62
2022/01/23 03:50:07;;;;;;;26.63;13.97;;;;;;;7.84;73.36;102353.31;5130617;27;20219;-62
2022/01/23 03:52:35;;;;;;;23.23;13.97;;;;;;;8.11;72.37;102366.78;5122852;27;20323;-66
2022/01/23 03:55:06;;;;;;;29.10;14.90;;;;;;;8.04;72.34;102360.13;5131897;27;20212;-68
2022/01/23 03:57:35;;;;;;;25.03;13.53;;;;;;;8.13;72.16;102370.19;5133201;27;20210;-62
2022/01/23 04:00:05;;;;;;;28.27;15.27;;;;;;;8.22;71.76;102373.19;5131279;27;20228;-61
2022/01/23 04:02:32;;;;;;;25.37;14.80;;;;;;;8.18;71.71;102374.28;5128054;27;20243;-61
2022/01/23 04:05:00;;;;;;;27.10;15.57;;;;;;;8.04;72.27;102376.00;5131531;27;20300;-61
2022/01/23 04:07:29;;;;;;;33.80;16.67;;;;;;;8.08;72.42;102372.25;5125130;27;20220;-61
2022/01/23 04:09:57;;;;;;;28.70;17.20;;;;;;;8.05;72.69;102375.06;5126865;27;20197;-61
2022/01/23 04:12:37;;;;;;;29.10;15.77;;;;;;;8.01;72.80;102373.50;5121597;27;20245;-61
2022/01/23 04:15:15;;;;;;;27.47;16.40;;;;;;;8.20;72.07;102376.84;5127721;27;20216;-62
2022/01/23 04:20:42;;;;;;;27.90;15.90;;;;;;;8.15;72.15;102363.03;5130130;27;20222;-61
2022/01/23 04:31:48;;;;;;;26.60;15.30;;;;;;;8.21;71.54;102358.25;5129806;27;20297;-61
2022/01/23 04:34:22;;;;;;;30.07;15.27;;;;;;;8.06;71.84;102359.13;5124156;27;20642;-62
2022/01/23 04:45:27;;;;;;;35.67;15.23;;;;;;;8.04;72.42;102373.34;5121115;27;20310;-62
2022/01/23 04:59:39;;;;;;;28.73;15.77;;;;;;;8.04;72.30;102387.41;5122649;27;20215;-62
2022/01/23 05:02:25;;;;;;;28.40;15.87;;;;;;;8.10;72.05;102386.22;5124560;27;20308;-62
2022/01/23 05:04:55;;;;;;;30.50;15.43;;;;;;;8.04;72.10;102381.28;5128088;27;20219;-62
2022/01/23 05:07:27;;;;;;;31.00;16.10;;;;;;;7.98;71.99;102385.13;5129343;27;20240;-62
2022/01/23 05:09:54;;;;;;;28.30;15.83;;;;;;;7.93;72.79;102384.50;5130170;27;20221;-62
2022/01/23 05:12:26;;;;;;;29.17;16.27;;;;;;;7.93;73.01;102384.50;5128160;27;20213;-64
2022/01/23 05:14:54;;;;;;;29.20;16.13;;;;;;;8.00;72.64;102385.03;5126942;27;20211;-63
2022/01/23 05:17:22;;;;;;;27.97;15.27;;;;;;;7.85;72.93;102398.16;5124919;27;20223;-63
2022/01/23 05:19:50;;;;;;;29.40;15.43;;;;;;;8.04;72.27;102383.91;5129567;27;20213;-64
2022/01/23 05:22:26;;;;;;;30.27;15.33;;;;;;;8.13;71.93;102380.75;5128248;27;20228;-60
2022/01/23 05:24:57;;;;;;;28.40;15.40;;;;;;;8.14;71.77;102382.47;5125754;27;20208;-61
2022/01/23 05:27:27;;;;;;;26.87;15.17;;;;;;;8.12;71.55;102390.47;5130327;27;20612;-61
2022/01/23 05:29:57;;;;;;;29.63;15.07;;;;;;;7.89;72.05;102394.41;5130804;27;20306;-62
2022/01/23 05:32:27;;;;;;;24.90;14.13;;;;;;;7.97;72.11;102393.13;5124297;27;20215;-62
2022/01/23 05:34:55;;;;;;;29.10;15.20;;;;;;;8.00;71.83;102396.47;5129398;27;20697;-63
2022/01/23 05:37:25;;;;;;;32.60;15.90;;;;;;;8.10;71.42;102399.41;5131453;27;20221;-64
2022/01/23 05:39:53;;;;;;;28.00;15.37;;;;;;;8.00;71.84;102395.63;5128443;27;20248;-63
2022/01/23 05:42:21;;;;;;;29.77;15.30;;;;;;;8.18;71.36;102405.16;5127033;27;20236;-63
2022/01/23 05:44:48;;;;;;;29.03;15.93;;;;;;;8.09;71.52;102417.06;5128807;27;20661;-62
2022/01/23 05:47:16;;;;;;;33.73;15.80;;;;;;;8.10;71.54;102418.78;5129659;27;20308;-62
2022/01/23 05:49:44;;;;;;;32.30;16.87;;;;;;;8.14;71.18;102414.19;5129379;27;20655;-62
2022/01/23 05:52:12;;;;;;;32.87;17.03;;;;;;;8.17;70.99;102419.31;5119421;27;20209;-61
2022/01/23 05:54:41;;;;;;;31.90;16.77;;;;;;;8.05;71.61;102423.47;5129406;27;20668;-62
2022/01/23 05:57:08;;;;;;;33.23;17.97;;;;;;;8.07;71.45;102412.81;5124754;27;20296;-61
2022/01/23 05:59:36;;;;;;;32.80;17.10;;;;;;;7.97;72.02;102430.13;5129110;27;20295;-61
2022/01/23 06:02:06;;;;;;;30.27;17.30;;;;;;;8.04;72.01;102420.91;5128308;27;20232;-61
2022/01/23 06:04:34;;;;;;;32.53;17.10;;;;;;;8.11;71.92;102414.34;5130479;27;20208;-62
2022/01/23 06:07:03;;;;;;;28.83;16.40;;;;;;;8.19;71.39;102410.34;5119324;27;20220;-62
2022/01/23 06:09:31;;;;;;;33.07;17.13;;;;;;;8.14;71.38;102414.19;5127041;27;20250;-62
2022/01/23 06:12:00;;;;;;;34.83;17.37;;;;;;;8.15;71.20;102419.41;5128060;27;20689;-62
2022/01/23 06:14:28;;;;;;;31.47;16.40;;;;;;;7.96;71.67;102416.06;5125883;27;20209;-63
2022/01/23 06:16:55;;;;;;;31.73;17.37;;;;;;;8.07;71.81;102412.81;5130055;27;20298;-63
2022/01/23 06:19:23;;;;;;;28.83;15.87;;;;;;;7.96;72.00;102409.91;5128722;27;20205;-63
2022/01/23 06:21:51;;;;;;;31.37;16.03;;;;;;;7.96;71.67;102410.78;5126780;27;20237;-62
2022/01/23 06:24:25;;;;;;;28.67;15.50;;;;;;;8.04;71.79;102413.00;5125573;27;20222;-63
2022/01/23 06:26:54;;;;;;;31.57;16.53;;;;;;;8.09;71.76;102416.25;5127874;27;20272;-62
2022/01/23 06:29:25;;;;;;;31.03;16.43;;;;;;;7.58;73.50;102426.03;5129092;27;20268;-62
2022/01/23 06:31:55;;;;;;;31.33;16.13;;;;;;;7.89;72.27;102423.47;5120276;27;20777;-62
2022/01/23 06:34:23;;;;;;;31.80;16.67;;;;;;;7.89;72.12;102434.03;5126033;27;20295;-63
2022/01/23 06:36:52;;;;;;;29.93;16.50;;;;;;;7.81;72.50;102433.59;5128490;28;20209;-63
2022/01/23 06:39:21;;;;;;;32.57;16.87;;;;;;;7.92;72.14;102425.94;5117924;28;20266;-61
2022/01/23 06:41:48;;;;;;;28.23;15.87;;;;;;;7.71;72.81;102427.09;5119330;28;20228;-62
2022/01/23 06:44:16;;;;;;;31.53;16.23;;;;;;;7.82;72.84;102435.31;5131597;27;20220;-62
2022/01/23 06:46:46;;;;;;;32.27;17.07;;;;;;;7.96;72.65;102434.53;5128388;28;20211;-62
2022/01/23 06:49:14;;;;;;;31.70;16.17;;;;;;;7.90;72.20;102434.91;5127693;28;20302;-61
2022/01/23 06:51:42;;;;;;;30.77;16.73;;;;;;;7.90;72.27;102438.38;5124087;28;20231;-61
2022/01/23 06:54:10;;;;;;;33.67;17.23;;;;;;;7.89;72.17;102438.47;5125890;28;20257;-61
2022/01/23 06:56:38;;;;;;;31.00;16.87;;;;;;;7.82;72.27;102450.31;5126307;28;20663;-61
2022/01/23 06:59:06;;;;;;;32.83;16.73;;;;;;;8.03;71.93;102453.56;5125970;28;20291;-61
2022/01/23 07:01:34;;;;;;;33.17;16.10;;;;;;;8.12;71.44;102453.06;5128401;28;20235;-62
2022/01/23 07:04:04;;;;;;;34.43;16.93;;;;;;;8.14;70.99;102457.31;5127510;28;21000;-62
2022/01/23 07:06:31;;;;;;;31.90;17.80;;;;;;;7.87;71.87;102464.97;5123297;28;20209;-61
2022/01/23 07:09:08;;;;;;;32.43;16.57;;;;;;;7.87;72.06;102469.38;5127565;28;20220;-62
2022/01/23 07:11:36;;;;;;;32.53;17.53;;;;;;;7.62;73.07;102472.47;5123839;28;20205;-62
2022/01/23 07:14:04;;;;;;;29.57;16.20;;;;;;;7.82;72.89;102476.72;5122029;28;20206;-61
2022/01/23 07:16:32;;;;;;;32.03;16.33;;;;;;;7.75;72.98;102481.44;5128745;28;20205;-62
2022/01/23 07:19:00;;;;;;;32.00;15.50;;;;;;;7.80;72.57;102483.88;5127732;28;20212;-62
2022/01/23 07:21:29;;;;;;;31.73;16.07;;;;;;;7.88;72.09;102486.94;5124359;28;20708;-61
2022/01/23 07:23:57;;;;;;;29.90;15.83;;;;;;;7.87;72.06;102485.25;5125062;28;20206;-62
2022/01/23 07:26:27;;;;;;;29.47;15.23;;;;;;;7.80;72.26;102479.44;5127986;27;20277;-62
2022/01/23 07:28:58;;;;;;;31.27;16.97;;;;;;;7.88;71.97;102487.81;5127599;28;20304;-61
2022/01/23 07:31:44;;;;;;;28.13;15.33;;;;;;;7.84;72.15;102490.66;5129158;28;20568;-61
2022/01/23 07:34:17;;;;;;;34.90;17.50;;;;;;;7.87;72.39;102496.66;5127994;28;20551;-61
2022/01/23 07:36:46;;;;;;;32.13;17.33;;;;;;;7.61;73.22;102494.53;5121367;28;20653;-61
2022/01/23 07:39:14;;;;;;;33.17;16.73;;;;;;;7.73;73.26;102493.91;5121961;28;20301;-63
2022/01/23 07:41:42;;;;;;;28.20;16.07;;;;;;;7.82;72.57;102492.56;5125341;28;20903;-61
2022/01/23 07:44:10;;;;;;;33.20;16.93;;;;;;;7.87;72.37;102493.16;5113982;28;20304;-61
2022/01/23 07:46:38;;;;;;;32.23;16.40;;;;;;;7.89;71.83;102494.78;5118662;28;20285;-61
2022/01/23 07:49:05;;;;;;;29.27;16.20;;;;;;;7.87;72.08;102490.53;5119531;28;20296;-62
2022/01/23 07:51:33;;;;;;;36.70;16.13;;;;;;;7.83;72.26;102495.09;5126410;27;20220;-62
2022/01/23 07:54:03;;;;;;;35.53;18.17;;;;;;;7.94;71.94;102498.03;5131410;27;20694;-62
2022/01/23 07:56:31;;;;;;;35.77;18.90;;;;;;;7.85;72.10;102501.16;5132456;27;20361;-63
2022/01/23 07:58:59;;;;;;;33.83;16.73;;;;;;;7.83;71.87;102503.03;5129569;27;20291;-62
2022/01/23 08:01:27;;;;;;;34.43;18.67;;;;;;;7.90;71.77;102501.78;5131163;27;20657;-62
2022/01/23 08:03:55;;;;;;;36.00;23.02;;;;;;;7.97;71.49;102512.88;5130193;27;20429;-65
2022/01/23 08:06:28;;;;;;;38.03;21.17;;;;;;;7.98;71.41;102508.44;5131745;27;20296;-64
2022/01/23 08:08:56;;;;;;;35.93;19.67;;;;;;;7.99;71.21;102510.16;5132736;27;20213;-65
2022/01/23 08:11:26;;;;;;;34.43;18.33;;;;;;;8.07;71.20;102510.59;5125221;27;20655;-65
2022/01/23 08:13:53;;;;;;;34.87;18.40;;;;;;;8.13;70.84;102513.75;5125367;27;20297;-65
2022/01/23 08:16:21;;;;;;;35.50;18.93;;;;;;;7.90;71.76;102511.50;5131587;27;20219;-65
2022/01/23 08:18:49;;;;;;;32.47;17.47;;;;;;;7.90;71.68;102511.50;5133052;27;20221;-65
2022/01/23 08:21:17;;;;;;;33.40;16.57;;;;;;;8.15;70.71;102514.53;5133883;27;20295;-65
2022/01/23 08:23:44;;;;;;;30.60;16.03;;;;;;;7.98;70.96;102516.38;5117462;27;20316;-64
2022/01/23 08:26:13;;;;;;;30.93;15.93;;;;;;;8.01;70.95;102510.91;5130772;27;20243;-64
2022/01/23 08:28:42;;;;;;;33.60;16.93;;;;;;;8.15;70.53;102509.25;5130398;27;20212;-64
2022/01/23 08:31:09;;;;;;;29.40;16.63;;;;;;;8.21;70.43;102514.19;5129423;27;20254;-65
2022/01/23 08:33:37;;;;;;;29.03;16.03;;;;;;;8.21;70.50;102513.34;5126991;27;20287;-64
2022/01/23 08:36:06;;;;;;;33.97;17.77;;;;;;;8.12;70.89;102514.69;5128390;27;20227;-66
2022/01/23 08:38:34;;;;;;;33.83;17.80;;;;;;;8.15;70.63;102526.91;5128787;27;20205;-64
2022/01/23 08:43:49;;;;;;;32.37;17.10;;;;;;;8.05;70.83;102530.97;5129041;27;20235;-65
2022/01/23 08:46:19;;;;;;;29.70;16.07;;;;;;;8.13;70.73;102529.63;5130181;27;20300;-64
2022/01/23 08:48:47;;;;;;;33.00;17.13;;;;;;;8.04;70.62;102534.53;5121203;27;20226;-65
2022/01/23 08:51:15;;;;;;;35.80;16.90;;;;;;;7.94;71.50;102535.03;5121348;27;20248;-65
2022/01/23 08:53:43;;;;;;;35.53;17.57;;;;;;;7.97;71.14;102527.88;5124595;27;20227;-65
2022/01/23 08:56:10;;;;;;;30.40;15.77;;;;;;;8.05;71.10;102536.25;5130223;27;20240;-65
2022/01/23 08:58:39;;;;;;;29.97;16.33;;;;;;;7.99;71.11;102531.28;5131031;27;20236;-65
2022/01/23 09:01:08;;;;;;;31.40;16.83;;;;;;;8.09;70.70;102535.16;5129908;27;20236;-65
2022/01/23 09:03:36;;;;;;;31.90;17.20;;;;;;;8.12;70.44;102538.47;5131173;27;20236;-65
2022/01/23 09:06:05;;;;;;;30.07;16.40;;;;;;;8.16;70.13;102533.91;5128223;27;20555;-65
2022/01/23 09:08:35;;;;;;;32.20;16.73;;;;;;;8.19;70.12;102536.34;5123979;27;20669;-64
2022/01/23 09:11:08;;;;;;;31.63;16.87;;;;;;;8.15;70.14;102534.81;5130895;27;20206;-65
2022/01/23 09:13:53;;;;;;;29.20;16.13;;;;;;;8.08;70.47;102536.09;5129414;27;20283;-65
2022/01/23 09:16:22;;;;;;;34.37;16.90;;;;;;;8.15;70.03;102529.53;5129258;27;20648;-65
2022/01/23 09:18:49;;;;;;;28.40;15.47;;;;;;;8.14;69.54;102533.97;5129559;27;20765;-65
2022/01/23 09:21:18;;;;;;;31.37;16.77;;;;;;;8.26;69.40;102537.75;5128633;27;20214;-64
2022/01/23 09:23:46;;;;;;;35.30;16.40;;;;;;;8.20;70.01;102538.06;5129237;27;20225;-64
2022/01/23 09:26:17;;;;;;;36.27;19.03;;;;;;;8.24;70.13;102531.69;5125240;27;20332;-65
2022/01/23 09:28:46;;;;;;;33.67;16.93;;;;;;;8.18;70.43;102537.31;5125087;27;20237;-64
2022/01/23 09:31:25;;;;;;;29.77;16.57;;;;;;;8.25;69.63;102539.53;5125717;27;20241;-65
2022/01/23 09:33:54;;;;;;;30.37;16.20;;;;;;;8.25;70.15;102547.47;5128399;27;20600;-64
2022/01/23 09:36:22;;;;;;;33.70;17.93;;;;;;;8.28;69.86;102535.84;5131060;27;20215;-65
2022/01/23 09:38:49;;;;;;;32.03;17.80;;;;;;;8.30;69.79;102536.63;5132094;27;20894;-65
2022/01/23 09:41:22;;;;;;;30.40;17.70;;;;;;;8.21;70.51;102543.28;5129723;27;20255;-63
2022/01/23 09:43:50;;;;;;;31.37;17.90;;;;;;;8.10;70.19;102548.28;5127403;27;20232;-64
2022/01/23 09:46:19;;;;;;;30.67;16.43;;;;;;;8.08;69.82;102547.53;5128305;27;20210;-65
2022/01/23 09:48:48;;;;;;;33.53;17.03;;;;;;;8.14;70.32;102552.47;5129977;27;20225;-65
2022/01/23 09:51:18;;;;;;;34.70;17.17;;;;;;;8.38;69.53;102550.31;5131229;27;20646;-64
2022/01/23 09:53:47;;;;;;;32.23;17.17;;;;;;;8.33;69.59;102547.09;5128003;27;20212;-64
2022/01/23 09:56:17;;;;;;;33.30;16.27;;;;;;;8.34;69.68;102546.16;5124376;27;20282;-66
2022/01/23 09:58:45;;;;;;;33.53;18.03;;;;;;;8.30;69.72;102539.28;5128699;27;20229;-66
2022/01/23 10:01:14;;;;;;;31.03;16.17;;;;;;;8.30;69.68;102542.78;5130312;27;20303;-63
2022/01/23 10:03:42;;;;;;;30.70;17.27;;;;;;;8.29;70.10;102545.50;5126916;27;20233;-66
2022/01/23 10:06:11;;;;;;;34.33;17.03;;;;;;;8.33;69.85;102539.16;5127545;27;20655;-65
2022/01/23 10:08:40;;;;;;;32.13;17.27;;;;;;;8.42;69.73;102546.59;5126263;27;20582;-65
2022/01/23 10:11:12;;;;;;;32.17;17.97;;;;;;;8.42;69.66;102541.28;5129333;27;20243;-65
2022/01/23 10:13:41;;;;;;;33.17;17.60;;;;;;;8.47;69.59;102535.75;5127678;27;20229;-65
2022/01/23 10:16:09;;;;;;;35.90;19.20;;;;;;;8.44;69.50;102536.78;5124442;27;20228;-64
2022/01/23 10:18:37;;;;;;;29.60;16.33;;;;;;;8.52;69.13;102536.34;5123351;27;20206;-64
2022/01/23 10:21:05;;;;;;;27.43;15.83;;;;;;;8.52;68.63;102542.50;5125388;27;20208;-64
2022/01/23 10:23:33;;;;;;;32.53;17.57;;;;;;;8.57;68.68;102535.16;5127511;27;20677;-65
2022/01/23 10:26:04;;;;;;;33.73;17.77;;;;;;;8.46;68.94;102537.53;5129334;27;20860;-64
2022/01/23 10:28:34;;;;;;;34.63;17.63;;;;;;;8.50;68.93;102532.94;5125938;27;20225;-64
2022/01/23 10:31:05;;;;;;;31.27;17.07;;;;;;;8.55;68.63;102537.03;5131809;27;20570;-64
2022/01/23 10:33:34;;;;;;;33.03;16.37;;;;;;;8.57;68.68;102540.44;5121889;27;21872;-65
2022/01/23 10:36:06;;;;;;;28.57;15.53;;;;;;;8.59;68.13;102535.94;5123230;27;20309;-64
2022/01/23 10:38:37;;;;;;;31.80;16.07;;;;;;;8.61;67.87;102539.34;5118594;28;20585;-65
2022/01/23 10:41:28;;;;;;;26.53;14.43;;;;;;;8.50;68.44;102528.50;5123657;28;20292;-65
2022/01/23 10:49:58;;;;;;;32.43;15.73;;;;;;;8.61;68.33;102526.13;5125405;28;20580;-64
2022/01/23 10:52:28;;;;;;;33.93;16.30;;;;;;;8.71;68.20;102526.44;5128193;28;20540;-65
2022/01/23 10:54:56;;;;;;;30.97;17.40;;;;;;;8.67;68.22;102528.41;5127194;28;20239;-65
2022/01/23 10:57:34;;;;;;;30.90;17.27;;;;;;;8.66;68.32;102528.50;5128856;28;20296;-64
2022/01/23 11:00:05;;;;;;;29.80;16.47;;;;;;;8.65;68.15;102522.34;5128797;28;20292;-65
2022/01/23 11:02:33;;;;;;;30.87;16.80;;;;;;;8.72;68.04;102522.00;5128490;28;20655;-65
2022/01/23 11:05:03;;;;;;;29.37;16.00;;;;;;;8.41;68.48;102523.72;5126967;28;20221;-68
2022/01/23 11:07:33;;;;;;;34.47;16.33;;;;;;;8.63;68.82;102518.94;5129085;28;20252;-67
2022/01/23 11:10:04;;;;;;;31.83;16.63;;;;;;;8.65;68.65;102514.41;5128434;28;20247;-68
2022/01/23 11:17:21;;;;;;;31.53;16.33;;;;;;;8.74;68.54;102520.13;5128034;28;20312;-67
2022/01/23 11:18:39;;;;;;;29.77;15.87;;;;;;;8.75;68.25;102519.19;5120481;28;20264;-65
2022/01/23 11:21:15;;;;;;;28.67;15.57;;;;;;;8.73;68.12;102515.78;5122826;28;20197;-66
2022/01/23 11:23:43;;;;;;;29.10;17.10;;;;;;;8.69;68.44;102517.75;5127514;27;20313;-65
2022/01/23 11:26:13;;;;;;;27.80;16.73;;;;;;;8.66;68.68;102512.63;5120819;27;20238;-65
2022/01/23 11:28:46;;;;;;;31.47;17.13;;;;;;;8.62;68.77;102495.22;5124519;27;20210;-65
2022/01/23 11:31:17;;;;;;;31.27;17.30;;;;;;;8.74;68.86;102502.47;5125704;27;20625;-66
2022/01/23 11:33:46;;;;;;;35.17;16.77;;;;;;;8.83;68.57;102509.03;5123968;27;20209;-64
2022/01/23 11:36:17;;;;;;;31.20;17.37;;;;;;;8.80;68.67;102498.59;5131181;27;20238;-66
2022/01/23 11:38:47;;;;;;;34.33;16.97;;;;;;;8.70;68.82;102493.00;5127776;27;20258;-66
2022/01/23 11:55:31;;;;;;;32.53;17.50;;;;;;;8.83;68.32;102495.78;5102256;27;20242;-66
2022/01/23 11:57:58;;;;;;;30.90;17.33;;;;;;;8.86;68.56;102498.28;5131009;27;20732;-66
2022/01/23 12:00:31;;;;;;;30.67;17.10;;;;;;;8.90;68.13;102500.63;5129694;27;20309;-67
2022/01/23 12:03:12;;;;;;;31.80;16.77;;;;;;;8.95;68.18;102503.03;5129698;27;20206;-67
2022/01/23 12:05:43;;;;;;;31.50;17.00;;;;;;;8.90;68.40;102500.63;5130152;27;20876;-66
2022/01/23 12:08:35;;;;;;;32.23;17.10;;;;;;;8.85;68.13;102491.28;5132416;27;20249;-67
2022/01/23 12:17:11;;;;;;;27.77;15.00;;;;;;;8.84;68.43;102478.97;5091290;27;20674;-64
2022/01/23 12:19:48;;;;;;;34.13;18.53;;;;;;;8.85;68.34;102480.69;5130828;27;20235;-66
2022/01/23 12:22:42;;;;;;;34.30;17.10;;;;;;;9.03;68.07;102466.41;5120774;27;20216;-65
2022/01/23 12:25:20;;;;;;;32.80;16.50;;;;;;;9.02;68.17;102469.97;5125241;27;20246;-64
2022/01/23 12:27:48;;;;;;;36.00;18.40;;;;;;;9.15;67.70;102468.31;5129311;27;20210;-65
2022/01/23 12:30:41;;;;;;;32.20;16.53;;;;;;;9.14;67.79;102463.97;5131267;27;20301;-66
2022/01/23 12:33:46;;;;;;;31.13;16.70;;;;;;;9.19;67.44;102458.41;5130241;27;20212;-66
2022/01/23 12:36:23;;;;;;;34.80;18.40;;;;;;;8.96;67.89;102462.41;5112380;27;20220;-67
2022/01/23 12:38:54;;;;;;;32.73;17.60;;;;;;;9.11;67.95;102448.25;5117885;27;20268;-65
2022/01/23 12:41:33;;;;;;;32.80;16.37;;;;;;;9.25;67.34;102443.00;5123917;27;20202;-66
2022/01/23 12:44:04;;;;;;;29.43;16.43;;;;;;;9.13;67.55;102450.81;5127199;27;20672;-66
2022/01/23 12:46:37;;;;;;;34.03;17.00;;;;;;;9.22;67.71;102448.50;5126568;27;20259;-65
2022/01/23 12:49:28;;;;;;;32.07;17.87;;;;;;;9.25;67.70;102443.00;5129671;27;20198;-65
2022/01/23 12:52:14;;;;;;;32.80;16.80;;;;;;;9.28;67.26;102445.47;5128462;27;20287;-65
2022/01/23 12:54:56;;;;;;;33.27;17.27;;;;;;;9.21;67.24;102441.50;5131112;27;20233;-65
2022/01/23 12:57:36;;;;;;;30.67;16.47;;;;;;;9.29;66.92;102433.94;5132179;27;20216;-64
2022/01/23 13:00:09;;;;;;;32.03;17.77;;;;;;;9.29;67.25;102443.66;5132264;27;20200;-64
2022/01/23 13:02:43;;;;;;;31.17;16.70;;;;;;;9.24;67.12;102436.00;5118771;27;20216;-64
2022/01/23 13:05:15;;;;;;;32.70;16.63;;;;;;;9.31;67.03;102442.66;5122544;27;20234;-64
2022/01/23 13:07:53;;;;;;;36.40;18.13;;;;;;;9.23;67.29;102436.09;5124628;27;20216;-64
2022/01/23 13:10:32;;;;;;;31.23;17.50;;;;;;;9.33;66.89;102438.09;5115889;27;20674;-65
2022/01/23 13:13:16;;;;;;;31.40;16.73;;;;;;;9.04;67.50;102437.19;5116043;27;20219;-66
2022/01/23 13:16:18;;;;;;;29.90;16.30;;;;;;;9.17;67.65;102439.94;5120442;27;20192;-66
2022/01/23 13:18:52;;;;;;;31.03;17.07;;;;;;;9.26;67.46;102443.84;5130894;27;20206;-68
2022/01/23 13:27:22;;;;;;;27.50;16.27;;;;;;;9.16;67.60;102440.88;5126959;27;20246;-67
2022/01/23 13:30:04;;;;;;;28.83;16.40;;;;;;;9.20;67.52;102439.78;5132166;27;20221;-68
2022/01/23 13:32:40;;;;;;;26.30;15.10;;;;;;;9.15;67.10;102441.81;5128947;27;20245;-67
2022/01/23 13:35:12;;;;;;;26.53;15.27;;;;;;;9.17;67.37;102445.25;5119369;27;20203;-67
2022/01/23 13:37:43;;;;;;;30.13;15.80;;;;;;;9.26;67.13;102441.19;5123182;27;20697;-65
2022/01/23 13:40:14;;;;;;;30.27;16.07;;;;;;;9.20;66.70;102442.44;5128487;27;20236;-68
2022/01/23 13:49:07;;;;;;;30.37;15.77;;;;;;;9.30;66.91;102434.78;5129579;27;20244;-66
2022/01/23 13:51:37;;;;;;;31.97;17.03;;;;;;;9.22;66.99;102437.03;5128695;27;20659;-66
2022/01/23 13:59:56;;;;;;;29.77;17.37;;;;;;;9.25;67.25;102435.03;5130722;27;20217;-66
2022/01/23 14:02:25;;;;;;;33.80;17.50;;;;;;;8.99;67.00;102436.59;5130265;27;20293;-66
2022/01/23 14:04:56;;;;;;;29.90;16.37;;;;;;;9.02;67.72;102430.28;5127157;27;20229;-66
2022/01/23 14:07:26;;;;;;;34.50;17.40;;;;;;;9.17;67.41;102433.81;5118046;27;20242;-65
2022/01/23 14:09:58;;;;;;;31.13;17.30;;;;;;;9.11;67.36;102435.03;5116703;27;20211;-65